Time;durP1;ratioP1;P1;durP2;ratioP2;P2;SDS_P1;SDS_P2;PMS_P1;PMS_P2;Temp;Humidity;BMP_temperature;BMP_pressure;BME280_temperature;BME280_humidity;BME280_pressure;Samples;Min_cycle;Max_cycle;Signal;HPM_P1;HPM_P2
2021/10/12 00:01:56;;;;;;;36.63;33.50;;;10.00;92.80;;;;;;5028255;28;20476;-69
2021/10/12 00:04:23;;;;;;;36.37;33.33;;;10.00;92.90;;;;;;5026886;28;20456;-70
2021/10/12 00:06:51;;;;;;;39.05;35.67;;;10.00;93.10;;;;;;5027610;28;20557;-69
2021/10/12 00:09:19;;;;;;;38.67;35.60;;;10.10;93.30;;;;;;5025382;28;20280;-69
2021/10/12 00:11:46;;;;;;;37.57;33.87;;;10.10;92.70;;;;;;5027590;28;20480;-69
2021/10/12 00:14:13;;;;;;;37.37;34.07;;;10.10;92.80;;;;;;5023802;28;21021;-70
2021/10/12 00:16:40;;;;;;;38.33;34.83;;;10.00;93.00;;;;;;5023741;28;20973;-69
2021/10/12 00:19:07;;;;;;;38.30;34.93;;;10.00;92.90;;;;;;5022439;28;20865;-69
2021/10/12 00:21:35;;;;;;;36.30;33.03;;;10.00;93.00;;;;;;5030002;28;20904;-69
2021/10/12 00:24:04;;;;;;;38.37;34.73;;;10.00;93.10;;;;;;5026626;28;20546;-69
2021/10/12 00:26:30;;;;;;;36.33;33.40;;;9.90;93.30;;;;;;5029111;28;20464;-69
2021/10/12 00:28:58;;;;;;;36.83;33.83;;;9.90;93.30;;;;;;5025343;28;20456;-69
2021/10/12 00:31:24;;;;;;;34.83;31.40;;;9.90;93.20;;;;;;5029918;28;20518;-69
2021/10/12 00:33:51;;;;;;;36.77;33.50;;;9.90;93.20;;;;;;5027263;28;20964;-69
2021/10/12 00:36:18;;;;;;;37.93;34.03;;;9.90;93.00;;;;;;5028838;28;20452;-70
2021/10/12 00:38:45;;;;;;;37.10;33.60;;;9.90;93.20;;;;;;5027416;28;20486;-69
2021/10/12 00:41:13;;;;;;;38.57;34.80;;;9.90;93.10;;;;;;5029141;28;20484;-69
2021/10/12 00:43:40;;;;;;;37.23;33.73;;;9.90;93.00;;;;;;5026139;28;20811;-70
2021/10/12 00:46:07;;;;;;;34.73;32.10;;;9.90;92.90;;;;;;5028902;28;20463;-70
2021/10/12 00:48:34;;;;;;;34.17;31.47;;;9.90;92.90;;;;;;5025134;28;20815;-70
2021/10/12 00:51:01;;;;;;;36.10;32.60;;;9.90;92.70;;;;;;5016867;28;20486;-70
2021/10/12 00:53:29;;;;;;;35.13;31.93;;;9.90;92.70;;;;;;5026923;28;20818;-70
2021/10/12 00:55:56;;;;;;;37.03;34.07;;;9.90;92.50;;;;;;5029036;28;20470;-70
2021/10/12 00:58:25;;;;;;;34.37;31.63;;;9.80;92.70;;;;;;5026658;28;20591;-71
2021/10/12 01:00:53;;;;;;;37.20;33.90;;;9.80;92.80;;;;;;5026993;28;20472;-71
2021/10/12 01:03:20;;;;;;;36.27;33.13;;;9.80;92.80;;;;;;5023296;28;20456;-70
2021/10/12 01:05:47;;;;;;;36.03;33.10;;;9.80;93.10;;;;;;5022670;28;20486;-70
2021/10/12 01:08:14;;;;;;;37.10;33.75;;;9.80;93.20;;;;;;5026313;28;20456;-70
2021/10/12 01:10:41;;;;;;;35.87;32.83;;;9.70;93.30;;;;;;5028319;28;20225;-70
2021/10/12 01:13:09;;;;;;;36.63;33.33;;;9.70;93.30;;;;;;5027755;28;20452;-70
2021/10/12 01:15:37;;;;;;;36.67;33.43;;;9.70;93.40;;;;;;5026273;28;21135;-70
2021/10/12 01:18:10;;;;;;;38.63;35.17;;;9.70;93.30;;;;;;5028817;28;20488;-70
2021/10/12 01:20:38;;;;;;;37.00;33.90;;;9.70;93.30;;;;;;5026536;28;20231;-70
2021/10/12 01:23:06;;;;;;;37.93;34.53;;;9.80;93.40;;;;;;5027681;28;20459;-70
2021/10/12 01:25:33;;;;;;;37.90;34.10;;;9.80;93.30;;;;;;5027301;28;20463;-70
2021/10/12 01:28:00;;;;;;;40.47;36.97;;;9.80;93.30;;;;;;5026736;28;20471;-70
2021/10/12 01:30:27;;;;;;;37.83;34.53;;;9.80;93.20;;;;;;5021511;28;20486;-70
2021/10/12 01:32:54;;;;;;;36.83;33.47;;;9.80;93.20;;;;;;5024902;28;20467;-70
2021/10/12 01:35:21;;;;;;;38.40;34.40;;;9.80;93.40;;;;;;5026509;28;20550;-69
2021/10/12 01:37:48;;;;;;;36.93;33.43;;;9.80;93.40;;;;;;5026965;28;20459;-69
2021/10/12 01:40:17;;;;;;;38.80;35.40;;;9.80;93.50;;;;;;5025707;28;20466;-69
2021/10/12 01:42:44;;;;;;;39.10;35.30;;;9.80;93.50;;;;;;5027594;28;20499;-68
2021/10/12 01:45:12;;;;;;;37.13;33.93;;;9.80;93.40;;;;;;5026060;28;20464;-69
2021/10/12 01:47:39;;;;;;;38.27;35.10;;;9.80;93.40;;;;;;5027354;28;20534;-69
2021/10/12 01:50:08;;;;;;;38.87;35.07;;;9.80;93.40;;;;;;5026663;28;20471;-69
2021/10/12 01:52:35;;;;;;;37.43;33.97;;;9.80;93.30;;;;;;5028294;28;20452;-69
2021/10/12 01:55:02;;;;;;;37.60;34.17;;;9.80;93.30;;;;;;5026123;28;20490;-69
2021/10/12 01:57:30;;;;;;;37.13;33.90;;;9.80;93.30;;;;;;5028324;28;20452;-70
2021/10/12 01:59:57;;;;;;;37.33;34.23;;;9.90;93.20;;;;;;5026307;28;20472;-70
2021/10/12 02:02:24;;;;;;;39.17;35.80;;;10.00;93.00;;;;;;5024178;28;20594;-69
2021/10/12 02:04:51;;;;;;;35.83;32.80;;;10.00;92.80;;;;;;5026083;28;20452;-69
2021/10/12 02:07:18;;;;;;;38.00;34.80;;;10.00;92.40;;;;;;5028249;28;20807;-69
2021/10/12 02:09:45;;;;;;;37.03;33.93;;;9.90;92.30;;;;;;5026130;28;20538;-69
2021/10/12 02:12:12;;;;;;;38.87;35.47;;;9.90;92.60;;;;;;5027156;28;20480;-69
2021/10/12 02:14:40;;;;;;;38.40;35.00;;;10.00;92.50;;;;;;5029557;28;20457;-69
2021/10/12 02:17:07;;;;;;;37.10;33.63;;;10.00;92.60;;;;;;5028929;28;20459;-69
2021/10/12 02:19:34;;;;;;;38.27;35.00;;;10.00;92.70;;;;;;5029679;28;20966;-69
2021/10/12 02:22:01;;;;;;;38.87;35.07;;;10.00;92.60;;;;;;5030624;28;21141;-69
2021/10/12 02:24:28;;;;;;;37.97;34.53;;;10.00;92.60;;;;;;5029527;28;20549;-69
2021/10/12 02:26:55;;;;;;;37.10;33.20;;;10.00;92.60;;;;;;5031051;28;20458;-69
2021/10/12 02:29:22;;;;;;;37.63;33.83;;;10.10;92.50;;;;;;5028100;28;20462;-69
2021/10/12 02:31:50;;;;;;;36.93;33.50;;;10.00;92.50;;;;;;5030646;28;20480;-68
2021/10/12 02:34:17;;;;;;;36.07;32.83;;;10.00;92.60;;;;;;5029346;28;20456;-69
2021/10/12 02:36:44;;;;;;;38.17;34.70;;;10.10;92.40;;;;;;5031287;28;20586;-69
2021/10/12 02:39:10;;;;;;;38.10;34.70;;;10.10;92.00;;;;;;5027708;28;20548;-69
2021/10/12 02:41:37;;;;;;;37.20;33.77;;;10.10;91.90;;;;;;5029724;28;21229;-69
2021/10/12 02:44:05;;;;;;;39.00;35.30;;;10.10;92.00;;;;;;5029063;28;20463;-69
2021/10/12 02:46:32;;;;;;;37.73;34.20;;;10.00;92.30;;;;;;5030345;28;20529;-69
2021/10/12 02:49:00;;;;;;;36.30;32.87;;;10.10;92.20;;;;;;5028934;28;20470;-69
2021/10/12 02:51:27;;;;;;;37.63;34.23;;;10.10;92.20;;;;;;5031354;28;21063;-69
2021/10/12 02:53:54;;;;;;;38.17;34.57;;;10.10;92.20;;;;;;5028799;28;20468;-69
2021/10/12 02:56:21;;;;;;;38.07;34.53;;;10.10;92.50;;;;;;5031231;28;20456;-69
2021/10/12 02:58:48;;;;;;;36.30;33.00;;;10.10;92.90;;;;;;5028537;28;20483;-69
2021/10/12 03:01:15;;;;;;;36.47;33.27;;;10.10;92.40;;;;;;5030061;28;20476;-69
2021/10/12 03:03:42;;;;;;;35.87;32.87;;;10.10;92.40;;;;;;5028715;28;20575;-69
2021/10/12 03:06:10;;;;;;;36.37;33.10;;;10.10;92.30;;;;;;5026803;28;20467;-69
2021/10/12 03:08:37;;;;;;;37.17;33.77;;;10.20;92.10;;;;;;5026967;28;20470;-69
2021/10/12 03:11:04;;;;;;;37.73;34.43;;;10.10;92.30;;;;;;5030496;28;20571;-69
2021/10/12 03:13:31;;;;;;;38.37;34.90;;;10.20;92.20;;;;;;5028231;28;20462;-69
2021/10/12 03:15:57;;;;;;;36.13;32.83;;;10.20;92.00;;;;;;5030494;28;20456;-69
2021/10/12 03:18:24;;;;;;;38.40;35.17;;;10.20;91.90;;;;;;5029249;28;20468;-69
2021/10/12 03:20:51;;;;;;;33.37;30.57;;;10.20;91.80;;;;;;5029961;28;20476;-69
2021/10/12 03:23:19;;;;;;;39.80;36.60;;;10.20;91.80;;;;;;5027781;28;20976;-69
2021/10/12 03:25:46;;;;;;;33.90;30.90;;;10.20;91.60;;;;;;5021801;28;20464;-69
2021/10/12 03:28:13;;;;;;;35.33;32.30;;;10.20;91.40;;;;;;5029566;28;20554;-69
2021/10/12 03:30:40;;;;;;;36.47;33.40;;;10.30;91.20;;;;;;5028263;28;21016;-69
2021/10/12 03:33:07;;;;;;;36.53;33.30;;;10.30;90.90;;;;;;5030601;28;20460;-69
2021/10/12 03:35:36;;;;;;;34.97;31.50;;;10.30;90.90;;;;;;5027389;28;20559;-69
2021/10/12 03:38:03;;;;;;;35.70;32.60;;;10.20;91.00;;;;;;5029288;28;20462;-69
2021/10/12 03:40:32;;;;;;;34.90;31.83;;;10.20;91.00;;;;;;5020236;28;21132;-69
2021/10/12 03:42:59;;;;;;;38.27;35.00;;;10.30;90.30;;;;;;5029260;28;20462;-69
2021/10/12 03:45:26;;;;;;;39.97;36.77;;;10.30;90.10;;;;;;5027531;28;20491;-69
2021/10/12 03:47:53;;;;;;;37.50;34.40;;;10.30;89.90;;;;;;5030211;28;20547;-69
2021/10/12 03:50:20;;;;;;;36.53;33.23;;;10.30;90.10;;;;;;5026394;28;20456;-69
2021/10/12 03:52:47;;;;;;;38.03;34.73;;;10.30;90.10;;;;;;5026202;28;20539;-69
2021/10/12 03:55:15;;;;;;;37.23;34.13;;;10.30;90.20;;;;;;5028114;28;20862;-69
2021/10/12 03:57:44;;;;;;;37.10;33.93;;;10.20;90.70;;;;;;5030029;28;20470;-69
2021/10/12 04:00:12;;;;;;;35.40;32.20;;;10.10;91.00;;;;;;5026781;28;21095;-69
2021/10/12 04:02:39;;;;;;;35.23;32.03;;;10.10;91.10;;;;;;5028604;28;20464;-69
2021/10/12 04:05:07;;;;;;;35.23;32.40;;;10.10;91.30;;;;;;5027531;28;20468;-69
2021/10/12 04:07:34;;;;;;;35.63;32.53;;;10.20;91.30;;;;;;5028887;28;20533;-69
2021/10/12 04:10:01;;;;;;;35.53;32.63;;;10.20;91.00;;;;;;5027405;28;20539;-69
2021/10/12 04:12:28;;;;;;;37.23;34.07;;;10.20;91.00;;;;;;5029017;28;20460;-69
2021/10/12 04:14:57;;;;;;;34.47;31.57;;;10.20;90.90;;;;;;5026674;28;20551;-69
2021/10/12 04:17:25;;;;;;;36.90;33.60;;;10.20;90.90;;;;;;5029558;28;20458;-69
2021/10/12 04:19:52;;;;;;;35.33;32.53;;;10.20;90.90;;;;;;5027226;28;20490;-69
2021/10/12 04:22:19;;;;;;;34.53;31.77;;;10.20;90.70;;;;;;5029002;28;21367;-69
2021/10/12 04:24:46;;;;;;;35.80;32.80;;;10.30;90.60;;;;;;5026840;28;20803;-69
2021/10/12 04:27:13;;;;;;;37.10;33.70;;;10.30;90.60;;;;;;5029209;28;20472;-74
2021/10/12 04:29:40;;;;;;;34.13;31.43;;;10.30;90.50;;;;;;5027203;28;20476;-74
2021/10/12 04:32:11;;;;;;;33.00;30.17;;;10.40;90.20;;;;;;5028529;28;20486;-69
2021/10/12 04:34:37;;;;;;;33.80;30.90;;;10.40;90.20;;;;;;5027509;28;20539;-72
2021/10/12 04:37:05;;;;;;;34.53;31.57;;;10.40;90.30;;;;;;5028493;28;21017;-72
2021/10/12 04:39:31;;;;;;;34.70;32.00;;;10.40;90.00;;;;;;5026961;28;20993;-68
2021/10/12 04:42:01;;;;;;;33.97;31.30;;;10.50;89.60;;;;;;5027841;28;20834;-70
2021/10/12 04:44:29;;;;;;;34.87;32.07;;;10.40;89.70;;;;;;5027023;28;20467;-70
2021/10/12 04:46:56;;;;;;;34.40;31.60;;;10.40;90.30;;;;;;5028941;28;20464;-70
2021/10/12 04:49:24;;;;;;;35.03;32.10;;;10.30;91.10;;;;;;5026502;28;20952;-70
2021/10/12 04:51:51;;;;;;;35.10;32.00;;;10.30;91.20;;;;;;5027754;28;20986;-72
2021/10/12 04:54:18;;;;;;;36.80;34.00;;;10.30;91.30;;;;;;5027820;28;20455;-70
2021/10/12 04:56:45;;;;;;;33.83;31.13;;;10.40;91.40;;;;;;5026237;28;20472;-71
2021/10/12 04:59:12;;;;;;;35.77;32.97;;;10.40;91.60;;;;;;5026744;28;20562;-71
2021/10/12 05:01:39;;;;;;;36.40;33.70;;;10.40;91.50;;;;;;5027612;28;20483;-71
2021/10/12 05:04:06;;;;;;;30.77;28.47;;;10.30;91.70;;;;;;5027775;28;20456;-71
2021/10/12 05:06:34;;;;;;;34.90;32.00;;;10.30;91.90;;;;;;5027030;28;20460;-71
2021/10/12 05:09:01;;;;;;;32.83;30.37;;;10.40;91.90;;;;;;5020442;28;20467;-71
2021/10/12 05:11:28;;;;;;;31.03;28.60;;;10.40;91.50;;;;;;5024725;28;20574;-70
2021/10/12 05:13:56;;;;;;;35.17;31.67;;;10.40;91.60;;;;;;5020670;28;20451;-71
2021/10/12 05:16:24;;;;;;;35.40;32.40;;;10.40;91.80;;;;;;5025295;28;20933;-71
2021/10/12 05:18:57;;;;;;;31.07;28.53;;;10.40;91.90;;;;;;5025201;28;20565;-71
2021/10/12 05:21:24;;;;;;;34.17;31.07;;;10.40;91.80;;;;;;5027600;28;21180;-70
2021/10/12 05:23:53;;;;;;;34.00;31.30;;;10.40;91.80;;;;;;5026623;28;20496;-71
2021/10/12 05:26:20;;;;;;;33.13;30.63;;;10.40;92.00;;;;;;5024298;28;21034;-70
2021/10/12 05:28:47;;;;;;;32.90;30.20;;;10.40;93.00;;;;;;5026513;28;20490;-74
2021/10/12 05:31:14;;;;;;;35.10;32.40;;;10.40;92.70;;;;;;5023048;28;20494;-75
2021/10/12 05:33:41;;;;;;;31.87;29.33;;;10.40;92.50;;;;;;5024143;28;20470;-72
2021/10/12 05:36:08;;;;;;;34.97;32.17;;;10.40;92.50;;;;;;5027673;28;20510;-72
2021/10/12 05:38:35;;;;;;;31.60;29.10;;;10.40;92.40;;;;;;5023367;28;20841;-70
2021/10/12 05:41:03;;;;;;;34.23;31.30;;;10.30;92.80;;;;;;5025036;28;20559;-70
2021/10/12 05:43:30;;;;;;;35.20;31.70;;;10.40;92.40;;;;;;5024745;28;20977;-71
2021/10/12 05:45:57;;;;;;;34.23;31.53;;;10.30;92.30;;;;;;5028093;28;20456;-70
2021/10/12 05:48:24;;;;;;;34.20;31.30;;;10.40;92.30;;;;;;5027224;28;21074;-71
2021/10/12 05:50:51;;;;;;;35.20;32.27;;;10.40;92.20;;;;;;5031312;28;20477;-71
2021/10/12 05:53:25;;;;;;;34.20;31.53;;;10.40;92.20;;;;;;5031501;28;20450;-71
2021/10/12 05:55:55;;;;;;;35.60;33.00;;;10.40;92.40;;;;;;5031266;28;20543;-70
2021/10/12 05:58:32;;;;;;;33.97;31.07;;;10.40;92.50;;;;;;5024512;28;21231;-70
2021/10/12 06:01:00;;;;;;;36.80;33.70;;;10.40;92.50;;;;;;5031480;28;20479;-70
2021/10/12 06:03:28;;;;;;;33.93;31.33;;;10.40;92.60;;;;;;5029228;28;20455;-70
2021/10/12 06:05:56;;;;;;;33.90;31.37;;;10.40;92.60;;;;;;5030316;28;20482;-70
2021/10/12 06:08:23;;;;;;;33.37;30.87;;;10.40;92.70;;;;;;5023726;28;20490;-70
2021/10/12 06:10:50;;;;;;;32.30;30.00;;;10.40;92.80;;;;;;5028976;28;21082;-70
2021/10/12 06:13:17;;;;;;;34.30;31.80;;;10.40;93.20;;;;;;5028051;28;20456;-70
2021/10/12 06:15:46;;;;;;;32.77;30.27;;;10.40;93.40;;;;;;5029998;28;20451;-70
2021/10/12 06:18:14;;;;;;;35.43;32.53;;;10.40;93.30;;;;;;5026605;28;20558;-70
2021/10/12 06:20:40;;;;;;;36.03;32.83;;;10.40;93.40;;;;;;5041027;28;20991;-70
2021/10/12 06:23:08;;;;;;;33.90;31.30;;;10.40;93.90;;;;;;5030698;28;20499;-70
2021/10/12 06:25:36;;;;;;;35.53;32.50;;;10.40;94.20;;;;;;5028470;28;20459;-70
2021/10/12 06:28:03;;;;;;;33.90;31.30;;;10.50;94.10;;;;;;5027478;28;20976;-70
2021/10/12 06:30:30;;;;;;;33.77;30.77;;;10.50;93.90;;;;;;5027372;28;20476;-70
2021/10/12 06:32:59;;;;;;;34.37;31.77;;;10.50;93.80;;;;;;5029511;28;20547;-70
2021/10/12 06:35:29;;;;;;;31.27;28.67;;;10.60;93.60;;;;;;5034538;28;20551;-70
2021/10/12 06:37:56;;;;;;;33.00;30.37;;;10.60;93.40;;;;;;5026874;28;20467;-71
2021/10/12 06:40:23;;;;;;;34.63;31.80;;;10.60;93.20;;;;;;5029193;28;20589;-71
2021/10/12 06:42:50;;;;;;;31.77;29.37;;;10.60;92.60;;;;;;5035191;28;20466;-70
2021/10/12 06:45:18;;;;;;;30.80;28.13;;;10.60;92.80;;;;;;5028991;28;20466;-71
2021/10/12 06:47:46;;;;;;;33.47;30.97;;;10.60;93.00;;;;;;5030607;28;20471;-71
2021/10/12 06:50:15;;;;;;;33.83;31.17;;;10.60;92.90;;;;;;5028369;28;20491;-71
2021/10/12 06:52:42;;;;;;;36.13;33.00;;;10.60;92.80;;;;;;5030736;28;20483;-71
2021/10/12 06:55:10;;;;;;;44.83;40.33;;;10.70;92.60;;;;;;5029487;28;20452;-70
2021/10/12 06:57:38;;;;;;;37.73;34.20;;;10.70;92.50;;;;;;5027182;28;20852;-71
2021/10/12 07:00:08;;;;;;;38.73;35.23;;;10.70;92.90;;;;;;5027901;28;20562;-75
2021/10/12 07:02:35;;;;;;;37.97;34.97;;;10.70;92.60;;;;;;5031449;28;20484;-70
2021/10/12 07:05:05;;;;;;;32.57;30.07;;;10.80;92.30;;;;;;5023739;28;20967;-70
2021/10/12 07:07:34;;;;;;;36.13;32.93;;;10.80;92.20;;;;;;5025912;28;22350;-70
2021/10/12 07:10:01;;;;;;;33.60;30.80;;;10.80;92.00;;;;;;5028920;28;20456;-72
2021/10/12 07:12:28;;;;;;;32.63;29.93;;;10.90;92.20;;;;;;5029342;28;20587;-71
2021/10/12 07:14:55;;;;;;;33.77;30.90;;;10.90;92.90;;;;;;5029824;28;20455;-71
2021/10/12 07:17:22;;;;;;;33.77;31.27;;;10.90;92.60;;;;;;5030700;28;20840;-70
2021/10/12 07:19:49;;;;;;;35.60;32.50;;;10.90;92.10;;;;;;5027806;28;20464;-71
2021/10/12 07:22:17;;;;;;;33.80;31.20;;;10.90;92.30;;;;;;5031047;28;20863;-72
2021/10/12 07:24:46;;;;;;;33.33;30.63;;;10.90;92.40;;;;;;5028889;28;20510;-72
2021/10/12 07:27:12;;;;;;;33.87;31.27;;;10.90;92.50;;;;;;5030092;28;20878;-72
2021/10/12 07:29:39;;;;;;;34.43;31.43;;;11.00;92.40;;;;;;5027232;28;20468;-72
2021/10/12 07:32:07;;;;;;;33.47;30.87;;;11.00;92.10;;;;;;5024399;28;20480;-72
2021/10/12 07:34:33;;;;;;;30.93;28.63;;;11.10;91.90;;;;;;5022151;28;20455;-71
2021/10/12 07:37:00;;;;;;;33.73;31.33;;;11.10;91.70;;;;;;5026766;28;20570;-70
2021/10/12 07:39:27;;;;;;;32.20;29.80;;;11.10;91.90;;;;;;5025411;28;20460;-70
2021/10/12 07:41:55;;;;;;;31.77;29.37;;;11.10;92.10;;;;;;5025940;28;20479;-70
2021/10/12 07:44:22;;;;;;;32.23;30.00;;;11.20;92.00;;;;;;5025989;28;20452;-70
2021/10/12 07:46:49;;;;;;;32.23;29.83;;;11.20;91.40;;;;;;5029713;28;20458;-71
2021/10/12 07:49:16;;;;;;;29.87;27.77;;;11.20;91.00;;;;;;5027738;28;20543;-71
2021/10/12 07:51:43;;;;;;;30.63;28.03;;;11.20;90.50;;;;;;5029512;28;20482;-71
2021/10/12 07:54:14;;;;;;;29.33;27.20;;;11.30;90.00;;;;;;5028498;28;20483;-71
2021/10/12 07:56:41;;;;;;;29.47;27.00;;;11.30;90.20;;;;;;5027829;28;20451;-70
2021/10/12 07:59:11;;;;;;;30.87;28.50;;;11.30;89.70;;;;;;5025918;28;20462;-70
2021/10/12 08:01:39;;;;;;;30.20;27.80;;;11.30;89.60;;;;;;5029189;28;20524;-70
2021/10/12 08:04:06;;;;;;;28.17;26.30;;;11.30;89.40;;;;;;5024148;28;20477;-71
2021/10/12 08:06:33;;;;;;;28.07;26.10;;;11.40;89.50;;;;;;5030504;28;20456;-70
2021/10/12 08:09:00;;;;;;;31.83;29.63;;;11.40;89.10;;;;;;5028157;28;20543;-70
2021/10/12 08:11:28;;;;;;;30.27;28.03;;;11.50;89.00;;;;;;5028145;28;20475;-71
2021/10/12 08:13:58;;;;;;;28.73;26.70;;;11.50;88.80;;;;;;5026630;28;20460;-69
2021/10/12 08:16:29;;;;;;;29.83;27.53;;;11.50;89.00;;;;;;5029887;28;20472;-69
2021/10/12 08:18:57;;;;;;;27.80;25.90;;;11.60;89.20;;;;;;5027894;28;20464;-69
2021/10/12 08:21:25;;;;;;;29.97;27.90;;;11.70;89.60;;;;;;5029617;28;20480;-69
2021/10/12 08:23:54;;;;;;;28.30;26.50;;;11.80;90.10;;;;;;5025604;28;20500;-69
2021/10/12 08:26:21;;;;;;;30.90;28.27;;;11.90;89.10;;;;;;5029989;28;20574;-70
2021/10/12 08:28:48;;;;;;;27.30;25.40;;;11.90;89.00;;;;;;5027807;28;20478;-70
2021/10/12 08:31:15;;;;;;;30.23;28.30;;;12.10;88.40;;;;;;5028112;28;21019;-69
2021/10/12 08:33:43;;;;;;;29.53;27.60;;;12.30;87.80;;;;;;5026903;28;20536;-69
2021/10/12 08:36:10;;;;;;;27.10;25.30;;;12.40;87.70;;;;;;5028829;28;20468;-69
2021/10/12 08:38:38;;;;;;;26.17;24.57;;;12.50;86.40;;;;;;5027061;28;21543;-69
2021/10/12 08:41:06;;;;;;;28.57;26.57;;;12.70;86.20;;;;;;5022542;28;20498;-69
2021/10/12 08:43:35;;;;;;;28.30;26.43;;;12.80;85.60;;;;;;5026643;28;20954;-70
2021/10/12 08:46:03;;;;;;;28.50;26.60;;;12.90;86.00;;;;;;5028045;28;20468;-70
2021/10/12 08:48:32;;;;;;;28.30;26.33;;;13.10;85.00;;;;;;5028187;28;21044;-70
2021/10/12 08:51:02;;;;;;;29.07;27.17;;;13.20;85.30;;;;;;5028966;28;20475;-71
2021/10/12 08:53:29;;;;;;;28.70;26.70;;;13.30;83.90;;;;;;5024941;28;21026;-70
2021/10/12 08:55:57;;;;;;;27.23;25.43;;;13.40;83.30;;;;;;5023170;28;20961;-70
2021/10/12 08:58:25;;;;;;;31.37;28.97;;;13.40;82.60;;;;;;5028143;28;20464;-70
2021/10/12 09:01:06;;;;;;;29.37;27.47;;;13.30;82.60;;;;;;5028510;28;20510;-72
2021/10/12 09:03:49;;;;;;;29.17;27.30;;;13.30;82.70;;;;;;5020378;28;20483;-70
2021/10/12 09:06:29;;;;;;;29.30;27.27;;;13.20;82.70;;;;;;5019489;28;20460;-70
2021/10/12 09:08:58;;;;;;;28.10;26.30;;;13.20;82.90;;;;;;5026598;28;20793;-70
2021/10/12 09:11:27;;;;;;;28.93;26.83;;;13.40;82.50;;;;;;5027982;28;20571;-70
2021/10/12 09:14:01;;;;;;;28.13;26.20;;;13.40;82.50;;;;;;5025324;28;20527;-69
2021/10/12 09:16:34;;;;;;;28.40;26.67;;;13.50;82.50;;;;;;5028183;28;20470;-69
2021/10/12 09:19:02;;;;;;;28.17;26.23;;;13.60;82.20;;;;;;5025926;28;20463;-69
2021/10/12 09:21:31;;;;;;;29.43;27.33;;;13.70;82.10;;;;;;5026221;28;20483;-69
2021/10/12 09:24:08;;;;;;;28.37;26.67;;;13.90;81.40;;;;;;5028842;28;20482;-69
2021/10/12 09:26:37;;;;;;;28.70;26.67;;;14.00;81.10;;;;;;5023838;28;20487;-69
2021/10/12 09:29:07;;;;;;;26.77;25.07;;;14.10;81.10;;;;;;5026105;28;20481;-69
2021/10/12 09:31:36;;;;;;;28.73;27.07;;;14.20;79.60;;;;;;5031555;28;20472;-69
2021/10/12 09:34:05;;;;;;;26.87;25.10;;;14.30;78.90;;;;;;5019556;28;20553;-69
2021/10/12 09:36:37;;;;;;;30.40;28.60;;;14.30;78.80;;;;;;5027879;28;20559;-69
2021/10/12 09:39:05;;;;;;;29.90;27.93;;;14.20;78.60;;;;;;5028265;28;20547;-69
2021/10/12 09:41:32;;;;;;;27.90;25.80;;;14.10;79.90;;;;;;5031260;28;20475;-69
2021/10/12 09:44:16;;;;;;;28.30;26.50;;;13.90;79.60;;;;;;5027825;28;20974;-69
2021/10/12 09:46:46;;;;;;;28.53;26.60;;;13.90;80.30;;;;;;5029766;28;20452;-69
2021/10/12 09:49:16;;;;;;;29.90;28.10;;;13.70;80.70;;;;;;5028760;28;20471;-69
2021/10/12 09:51:55;;;;;;;31.27;29.27;;;13.60;81.10;;;;;;5030255;28;20475;-69
2021/10/12 09:54:23;;;;;;;28.13;26.13;;;13.60;81.70;;;;;;5028899;28;20529;-69
2021/10/12 09:56:51;;;;;;;26.60;25.00;;;13.60;82.00;;;;;;5030851;28;20460;-69
2021/10/12 09:59:18;;;;;;;29.13;27.33;;;13.60;83.00;;;;;;5029135;28;20813;-71
2021/10/12 10:01:49;;;;;;;28.03;26.13;;;13.60;82.20;;;;;;5027920;28;20494;-71
2021/10/12 10:04:18;;;;;;;28.13;26.43;;;13.50;81.90;;;;;;5025621;28;20550;-72
2021/10/12 10:06:49;;;;;;;28.00;26.27;;;13.40;82.30;;;;;;5030032;28;20474;-69
2021/10/12 10:09:17;;;;;;;29.17;27.47;;;13.20;82.70;;;;;;5028453;28;20462;-69
2021/10/12 10:11:44;;;;;;;30.93;28.93;;;13.20;83.70;;;;;;5025914;28;20480;-70
2021/10/12 10:14:12;;;;;;;28.33;26.70;;;13.10;83.90;;;;;;5026512;28;20463;-70
2021/10/12 10:16:41;;;;;;;28.27;26.40;;;13.10;84.20;;;;;;5029544;28;20451;-70
2021/10/12 10:19:13;;;;;;;26.90;24.90;;;13.00;84.40;;;;;;5028580;28;20482;-69
2021/10/12 10:21:46;;;;;;;30.40;28.30;;;13.00;84.40;;;;;;5029350;28;20479;-69
2021/10/12 10:24:21;;;;;;;27.40;25.60;;;12.80;84.40;;;;;;5028567;28;20488;-69
2021/10/12 10:26:49;;;;;;;28.03;26.07;;;12.60;85.50;;;;;;5029003;28;20578;-69
2021/10/12 10:29:25;;;;;;;28.33;26.20;;;12.70;85.50;;;;;;5031326;28;20456;-69
2021/10/12 10:31:56;;;;;;;25.67;23.93;;;12.80;84.60;;;;;;5026009;28;20563;-69
2021/10/12 10:34:32;;;;;;;26.77;24.97;;;12.90;84.50;;;;;;5027246;28;20460;-69
2021/10/12 10:37:29;;;;;;;26.23;24.50;;;13.10;84.20;;;;;;5027232;28;20483;-69
2021/10/12 10:40:01;;;;;;;27.87;26.03;;;13.50;83.60;;;;;;5026003;28;20458;-69
2021/10/12 10:42:50;;;;;;;27.30;25.20;;;13.90;83.30;;;;;;5026721;28;20483;-70
2021/10/12 10:45:17;;;;;;;30.40;28.50;;;14.40;82.50;;;;;;5028201;28;20460;-69
2021/10/12 10:47:48;;;;;;;29.00;27.10;;;14.80;80.60;;;;;;5031016;28;20864;-70
2021/10/12 10:50:16;;;;;;;29.90;27.47;;;14.80;78.50;;;;;;5027146;28;20460;-69
2021/10/12 10:52:44;;;;;;;29.47;27.37;;;15.00;77.70;;;;;;5029499;28;20474;-69
2021/10/12 10:55:13;;;;;;;28.00;26.30;;;15.10;77.00;;;;;;5027614;28;20478;-70
2021/10/12 10:58:04;;;;;;;30.13;28.27;;;15.20;76.80;;;;;;5027020;28;20762;-70
2021/10/12 11:00:37;;;;;;;29.80;27.80;;;15.10;77.00;;;;;;5027885;28;20468;-70
2021/10/12 11:03:04;;;;;;;28.67;26.80;;;14.80;77.60;;;;;;5027380;28;20470;-70
2021/10/12 11:05:40;;;;;;;29.03;27.17;;;14.70;77.80;;;;;;5024272;28;20463;-70
2021/10/12 11:08:12;;;;;;;27.17;25.17;;;14.70;77.20;;;;;;5027870;28;20456;-70
2021/10/12 11:10:41;;;;;;;28.33;26.63;;;14.70;77.00;;;;;;5024192;28;21060;-70
2021/10/12 11:13:09;;;;;;;29.30;27.40;;;14.50;77.40;;;;;;5026567;28;21080;-70
2021/10/12 11:15:47;;;;;;;27.80;26.03;;;14.30;75.70;;;;;;5027573;28;20451;-69
2021/10/12 11:18:14;;;;;;;28.13;26.27;;;14.00;76.20;;;;;;5030309;28;20463;-69
2021/10/12 11:20:43;;;;;;;28.67;26.50;;;13.90;77.70;;;;;;5028286;28;20471;-69
2021/10/12 11:23:11;;;;;;;26.50;24.90;;;13.70;77.10;;;;;;5029291;28;20483;-69
2021/10/12 11:25:39;;;;;;;28.03;25.90;;;13.40;78.40;;;;;;5027254;28;21107;-69
2021/10/12 11:28:12;;;;;;;29.07;26.63;;;13.30;77.90;;;;;;5028966;28;20554;-69
2021/10/12 11:30:41;;;;;;;29.00;27.03;;;13.10;78.60;;;;;;5028040;28;20482;-69
2021/10/12 11:33:07;;;;;;;27.23;25.23;;;13.00;79.40;;;;;;5029332;28;20448;-69
2021/10/12 11:35:36;;;;;;;26.00;24.30;;;13.10;80.00;;;;;;5027642;28;20456;-70
2021/10/12 11:38:04;;;;;;;27.70;25.53;;;13.30;79.80;;;;;;5030250;28;20459;-70
2021/10/12 11:40:31;;;;;;;28.20;26.17;;;13.50;78.90;;;;;;5026611;28;20967;-70
2021/10/12 11:42:59;;;;;;;27.07;25.00;;;13.60;79.00;;;;;;5027661;28;20481;-71
2021/10/12 11:45:28;;;;;;;26.83;25.23;;;14.00;77.40;;;;;;5027673;28;20952;-70
2021/10/12 11:47:55;;;;;;;27.77;25.87;;;13.90;76.30;;;;;;5030124;28;20458;-70
2021/10/12 11:50:23;;;;;;;26.30;24.60;;;14.10;76.80;;;;;;5024253;28;20459;-70
2021/10/12 11:52:52;;;;;;;26.97;25.13;;;14.10;75.80;;;;;;5028228;28;20470;-71
2021/10/12 11:55:26;;;;;;;26.40;24.40;;;14.00;76.20;;;;;;5022936;28;20548;-70
2021/10/12 11:57:53;;;;;;;26.80;25.20;;;14.20;77.40;;;;;;5027351;28;20519;-70
2021/10/12 12:00:36;;;;;;;25.80;24.20;;;14.60;77.70;;;;;;5025147;28;21019;-70
2021/10/12 12:03:15;;;;;;;27.63;25.93;;;14.80;76.40;;;;;;5020327;28;21081;-70
2021/10/12 12:05:50;;;;;;;31.10;28.47;;;15.00;75.70;;;;;;5033184;28;21052;-70
2021/10/12 12:08:17;;;;;;;27.17;25.47;;;15.10;76.50;;;;;;5028651;28;20543;-70
2021/10/12 12:10:44;;;;;;;30.60;28.67;;;15.20;74.70;;;;;;5026224;28;20490;-70
2021/10/12 12:13:11;;;;;;;27.53;25.73;;;15.30;74.30;;;;;;5024397;28;20467;-70
2021/10/12 12:15:41;;;;;;;28.00;26.30;;;15.30;73.40;;;;;;5021119;28;20472;-69
2021/10/12 12:18:15;;;;;;;27.73;25.93;;;15.20;72.70;;;;;;5027295;28;20485;-70
2021/10/12 12:20:56;;;;;;;29.43;27.37;;;15.10;71.40;;;;;;5027390;28;20880;-70
2021/10/12 12:23:38;;;;;;;27.10;25.27;;;15.10;71.60;;;;;;5027006;28;20968;-69
2021/10/12 12:26:08;;;;;;;31.30;29.20;;;15.00;70.60;;;;;;5029193;28;20459;-70
2021/10/12 12:28:35;;;;;;;27.17;25.57;;;15.00;71.30;;;;;;5028057;28;20463;-70
2021/10/12 12:31:19;;;;;;;30.60;28.67;;;15.00;69.80;;;;;;5029085;28;20551;-70
2021/10/12 12:33:47;;;;;;;27.70;26.00;;;14.70;71.50;;;;;;5025462;28;20494;-70
2021/10/12 12:36:14;;;;;;;27.30;25.37;;;14.90;72.00;;;;;;5029430;28;20893;-69